sensor_id;sensor_type;location;lat;lon;timestamp;P1;durP1;ratioP1;P2;durP2;ratioP2
43690;SDS011;29293;52.190;21.226;2023-03-30T00:15:06;43.60;;;18.60;;
43690;SDS011;29293;52.190;21.226;2023-03-30T00:30:16;38.10;;;16.80;;
43690;SDS011;29293;52.190;21.226;2023-03-30T00:45:24;39.00;;;16.80;;
43690;SDS011;29293;52.190;21.226;2023-03-30T01:00:32;45.60;;;16.80;;
43690;SDS011;29293;52.190;21.226;2023-03-30T01:15:45;41.70;;;16.80;;
43690;SDS011;29293;52.190;21.226;2023-03-30T01:31:09;38.50;;;16.70;;
43690;SDS011;29293;52.190;21.226;2023-03-30T01:46:34;37.30;;;16.60;;
43690;SDS011;29293;52.190;21.226;2023-03-30T02:01:46;41.00;;;16.70;;
43690;SDS011;29293;52.190;21.226;2023-03-30T02:16:58;36.00;;;15.80;;
43690;SDS011;29293;52.190;21.226;2023-03-30T02:32:13;35.70;;;15.90;;
43690;SDS011;29293;52.190;21.226;2023-03-30T02:47:25;32.40;;;15.00;;
43690;SDS011;29293;52.190;21.226;2023-03-30T03:02:42;34.80;;;16.20;;
43690;SDS011;29293;52.190;21.226;2023-03-30T03:17:52;32.90;;;15.30;;
43690;SDS011;29293;52.190;21.226;2023-03-30T03:33:00;30.30;;;14.70;;
43690;SDS011;29293;52.190;21.226;2023-03-30T03:48:07;31.70;;;14.60;;
43690;SDS011;29293;52.190;21.226;2023-03-30T04:03:14;33.40;;;15.00;;
43690;SDS011;29293;52.190;21.226;2023-03-30T04:18:22;28.90;;;14.10;;
43690;SDS011;29293;52.190;21.226;2023-03-30T04:33:37;29.40;;;14.10;;
43690;SDS011;29293;52.190;21.226;2023-03-30T04:48:48;35.40;;;15.10;;
43690;SDS011;29293;52.190;21.226;2023-03-30T05:03:55;31.70;;;14.30;;
43690;SDS011;29293;52.190;21.226;2023-03-30T05:19:03;36.40;;;14.90;;
43690;SDS011;29293;52.190;21.226;2023-03-30T05:34:10;37.60;;;15.70;;
43690;SDS011;29293;52.190;21.226;2023-03-30T05:49:17;28.50;;;12.70;;
43690;SDS011;29293;52.190;21.226;2023-03-30T06:04:25;29.80;;;14.40;;
43690;SDS011;29293;52.190;21.226;2023-03-30T06:19:32;29.40;;;14.20;;
43690;SDS011;29293;52.190;21.226;2023-03-30T06:34:40;28.20;;;14.50;;
43690;SDS011;29293;52.190;21.226;2023-03-30T06:49:49;32.20;;;14.30;;
43690;SDS011;29293;52.190;21.226;2023-03-30T07:04:56;30.20;;;14.10;;
43690;SDS011;29293;52.190;21.226;2023-03-30T07:20:07;28.20;;;13.50;;
43690;SDS011;29293;52.190;21.226;2023-03-30T07:35:18;30.00;;;13.70;;
43690;SDS011;29293;52.190;21.226;2023-03-30T07:50:25;28.20;;;14.40;;
43690;SDS011;29293;52.190;21.226;2023-03-30T08:05:35;27.60;;;12.60;;
43690;SDS011;29293;52.190;21.226;2023-03-30T08:20:42;26.70;;;13.60;;
43690;SDS011;29293;52.190;21.226;2023-03-30T08:35:50;24.90;;;12.40;;
43690;SDS011;29293;52.190;21.226;2023-03-30T08:50:58;25.80;;;12.80;;
43690;SDS011;29293;52.190;21.226;2023-03-30T09:06:12;24.70;;;12.80;;
43690;SDS011;29293;52.190;21.226;2023-03-30T09:21:27;22.40;;;12.10;;
43690;SDS011;29293;52.190;21.226;2023-03-30T09:36:38;23.60;;;12.70;;
43690;SDS011;29293;52.190;21.226;2023-03-30T09:51:54;25.50;;;14.10;;
43690;SDS011;29293;52.190;21.226;2023-03-30T10:07:17;24.00;;;13.00;;
43690;SDS011;29293;52.190;21.226;2023-03-30T10:22:27;24.20;;;13.70;;
43690;SDS011;29293;52.190;21.226;2023-03-30T10:37:35;28.20;;;14.40;;
43690;SDS011;29293;52.190;21.226;2023-03-30T10:52:46;28.40;;;14.10;;
43690;SDS011;29293;52.190;21.226;2023-03-30T11:08:03;22.80;;;11.60;;
43690;SDS011;29293;52.190;21.226;2023-03-30T11:23:18;19.40;;;11.70;;
43690;SDS011;29293;52.190;21.226;2023-03-30T11:38:38;16.90;;;9.70;;
43690;SDS011;29293;52.190;21.226;2023-03-30T11:53:52;19.30;;;10.30;;
43690;SDS011;29293;52.190;21.226;2023-03-30T12:24:38;16.00;;;9.20;;
43690;SDS011;29293;52.190;21.226;2023-03-30T12:39:53;14.10;;;9.60;;
43690;SDS011;29293;52.190;21.226;2023-03-30T13:10:45;15.40;;;8.40;;
43690;SDS011;29293;52.190;21.226;2023-03-30T13:26:00;15.80;;;8.20;;
43690;SDS011;29293;52.190;21.226;2023-03-30T13:41:20;14.00;;;8.00;;
43690;SDS011;29293;52.190;21.226;2023-03-30T13:56:36;13.60;;;7.20;;
43690;SDS011;29293;52.190;21.226;2023-03-30T14:11:48;14.30;;;6.90;;
43690;SDS011;29293;52.190;21.226;2023-03-30T14:27:04;15.50;;;7.40;;
43690;SDS011;29293;52.190;21.226;2023-03-30T14:42:17;13.20;;;6.80;;
43690;SDS011;29293;52.190;21.226;2023-03-30T14:57:33;14.10;;;5.50;;
43690;SDS011;29293;52.190;21.226;2023-03-30T15:12:45;9.40;;;4.60;;
43690;SDS011;29293;52.190;21.226;2023-03-30T15:27:53;10.10;;;5.10;;
43690;SDS011;29293;52.190;21.226;2023-03-30T15:43:16;17.00;;;7.40;;
43690;SDS011;29293;52.190;21.226;2023-03-30T15:58:25;17.90;;;9.10;;
43690;SDS011;29293;52.190;21.226;2023-03-30T16:13:32;24.60;;;10.70;;
43690;SDS011;29293;52.190;21.226;2023-03-30T16:28:43;21.20;;;10.70;;
43690;SDS011;29293;52.190;21.226;2023-03-30T16:43:54;19.70;;;10.50;;
43690;SDS011;29293;52.190;21.226;2023-03-30T16:59:01;18.10;;;9.60;;
43690;SDS011;29293;52.190;21.226;2023-03-30T17:14:08;15.40;;;8.60;;
43690;SDS011;29293;52.190;21.226;2023-03-30T17:29:15;22.70;;;10.60;;
43690;SDS011;29293;52.190;21.226;2023-03-30T17:44:23;17.80;;;9.70;;
43690;SDS011;29293;52.190;21.226;2023-03-30T17:59:30;20.30;;;10.70;;
43690;SDS011;29293;52.190;21.226;2023-03-30T18:29:45;26.60;;;14.20;;
43690;SDS011;29293;52.190;21.226;2023-03-30T18:44:52;27.40;;;15.90;;
43690;SDS011;29293;52.190;21.226;2023-03-30T20:28:19;41.00;;;23.00;;
43690;SDS011;29293;52.190;21.226;2023-03-30T20:43:26;38.70;;;21.50;;
43690;SDS011;29293;52.190;21.226;2023-03-30T20:58:34;41.40;;;22.40;;
43690;SDS011;29293;52.190;21.226;2023-03-30T21:13:42;40.40;;;21.90;;
43690;SDS011;29293;52.190;21.226;2023-03-30T21:28:49;38.80;;;22.60;;
43690;SDS011;29293;52.190;21.226;2023-03-30T21:43:56;37.10;;;19.90;;
43690;SDS011;29293;52.190;21.226;2023-03-30T21:59:03;44.90;;;24.20;;
43690;SDS011;29293;52.190;21.226;2023-03-30T22:14:10;42.80;;;23.20;;
43690;SDS011;29293;52.190;21.226;2023-03-30T22:29:16;35.80;;;20.80;;
43690;SDS011;29293;52.190;21.226;2023-03-30T22:44:25;34.00;;;19.10;;
43690;SDS011;29293;52.190;21.226;2023-03-30T22:59:32;37.20;;;19.70;;
43690;SDS011;29293;52.190;21.226;2023-03-30T23:14:39;36.20;;;20.00;;
43690;SDS011;29293;52.190;21.226;2023-03-30T23:29:47;27.20;;;17.50;;
43690;SDS011;29293;52.190;21.226;2023-03-30T23:44:55;22.90;;;15.30;;
